Terminal Aerodrome Forecast
Issued by NWS

Home | Current Version | Previous Version | Text Only | Print | Product List | Glossary On
Versions: 1 2 3 4 5 6 7 8 9 10 11 12 13 14 15 16 17 18 19 20 21 22 23 24 25 26 27 28
000
FTUS45 KGJT 312330
TAFEGE
TAF
KEGE 312330Z 0100/0124 22008KT P6SM VCTS SCT070CB BKN120
      TEMPO 0100/0102 VRB10G20KT -TSRA BKN060CB
     FM010200 10005KT P6SM VCSH SCT090 BKN200
     FM010700 00000KT P6SM FEW110 SCT200
     FM011900 23007KT P6SM VCTS SCT090CB BKN140
      AMD LTD TO CLD VIS AND WIND 0101/0113=

USA.gov is the U.S. government's official web portal to all federal, state and local government web resources and services.